createdAt,value
2017-12-10T00:00:09.539Z,992.35
2017-12-10T00:01:09.533Z,992.36
2017-12-10T00:02:09.521Z,992.33
2017-12-10T00:03:09.512Z,992.37
2017-12-10T00:04:09.503Z,992.34
2017-12-10T00:05:09.493Z,992.34
2017-12-10T00:06:09.492Z,992.31
2017-12-10T00:07:09.475Z,992.26
2017-12-10T00:08:09.480Z,992.27
2017-12-10T00:09:09.454Z,992.28
2017-12-10T00:10:09.447Z,992.22
2017-12-10T00:11:09.462Z,992.24
2017-12-10T00:12:09.427Z,992.22
2017-12-10T00:13:09.417Z,992.24
2017-12-10T00:14:09.408Z,992.18
2017-12-10T00:15:09.402Z,992.18
2017-12-10T00:16:09.389Z,992.13
2017-12-10T00:17:09.379Z,992.14
2017-12-10T00:18:09.373Z,992.18
2017-12-10T00:19:09.393Z,992.08
2017-12-10T00:20:09.375Z,992.14
2017-12-10T00:21:09.342Z,992.08
2017-12-10T00:22:09.333Z,992.07
2017-12-10T00:23:09.323Z,992.03
2017-12-10T00:24:09.320Z,991.92
2017-12-10T00:25:09.305Z,991.95
2017-12-10T00:26:09.294Z,991.93
2017-12-10T00:27:09.287Z,991.90
2017-12-10T00:28:09.279Z,991.92
2017-12-10T00:29:09.277Z,991.92
2017-12-10T00:30:09.266Z,991.95
2017-12-10T00:31:09.248Z,991.92
2017-12-10T00:32:09.287Z,991.89
2017-12-10T00:33:09.229Z,991.88
2017-12-10T00:34:09.222Z,991.86
2017-12-10T00:35:09.831Z,991.86
2017-12-10T00:36:09.204Z,991.83
2017-12-10T00:37:09.794Z,991.84
2017-12-10T00:38:09.186Z,991.83
2017-12-10T00:39:09.192Z,991.81
2017-12-10T00:40:09.165Z,991.80
2017-12-10T00:41:09.162Z,991.75
2017-12-10T00:42:09.149Z,991.73
2017-12-10T00:43:09.135Z,991.67
2017-12-10T00:44:09.128Z,991.67
2017-12-10T00:45:09.127Z,991.71
2017-12-10T00:46:09.109Z,991.69
2017-12-10T00:47:09.100Z,991.60
2017-12-10T00:48:09.095Z,991.53
2017-12-10T00:49:09.082Z,991.56
2017-12-10T00:50:09.072Z,991.56
2017-12-10T00:51:09.156Z,991.54
2017-12-10T00:52:09.060Z,991.58
2017-12-10T00:53:09.042Z,991.50
2017-12-10T00:54:09.035Z,991.51
2017-12-10T00:55:09.027Z,991.48
2017-12-10T00:56:09.014Z,991.53
2017-12-10T00:57:09.008Z,991.50
2017-12-10T00:58:08.995Z,991.50
2017-12-10T00:59:08.990Z,991.48
2017-12-10T01:00:08.977Z,991.53
2017-12-10T01:01:08.966Z,991.48
2017-12-10T01:02:08.961Z,991.43
2017-12-10T01:03:08.948Z,991.39
2017-12-10T01:04:08.939Z,991.39
2017-12-10T01:05:08.928Z,991.41
2017-12-10T01:06:08.924Z,991.37
2017-12-10T01:07:08.932Z,991.35
2017-12-10T01:08:08.902Z,991.26
2017-12-10T01:09:08.891Z,991.22
2017-12-10T01:10:08.884Z,991.23
2017-12-10T01:11:08.877Z,991.19
2017-12-10T01:12:08.866Z,991.19
2017-12-10T01:13:08.856Z,991.18
2017-12-10T01:14:08.858Z,991.16
2017-12-10T01:15:08.836Z,991.16
2017-12-10T01:16:08.834Z,991.13
2017-12-10T01:17:08.869Z,991.17
2017-12-10T01:18:08.809Z,991.21
2017-12-10T01:19:08.798Z,991.21
2017-12-10T01:20:08.791Z,991.20
2017-12-10T01:21:08.779Z,991.19
2017-12-10T01:22:08.777Z,991.18
2017-12-10T01:23:08.761Z,991.18
2017-12-10T01:24:08.753Z,991.14
2017-12-10T01:25:08.743Z,991.15
2017-12-10T01:26:08.801Z,991.15
2017-12-10T01:27:08.920Z,991.14
2017-12-10T01:28:08.716Z,991.08
2017-12-10T01:29:08.706Z,991.07
2017-12-10T01:30:08.699Z,991.11
2017-12-10T01:31:08.685Z,991.09
2017-12-10T01:32:08.677Z,991.13
2017-12-10T01:33:08.739Z,991.09
2017-12-10T01:34:08.869Z,991.04
2017-12-10T01:35:08.852Z,991.02
2017-12-10T01:36:08.671Z,991.03
2017-12-10T01:37:08.631Z,991.05
2017-12-10T01:38:08.789Z,990.95
2017-12-10T01:39:08.617Z,991.01
2017-12-10T01:40:08.601Z,991.01
2017-12-10T01:41:08.593Z,990.99
2017-12-10T01:42:08.581Z,991.03
2017-12-10T01:43:08.575Z,990.98
2017-12-10T01:44:08.564Z,990.97
2017-12-10T01:45:08.553Z,990.89
2017-12-10T01:46:08.587Z,990.91
2017-12-10T01:47:08.533Z,990.94
2017-12-10T01:48:08.526Z,990.84
2017-12-10T01:49:08.519Z,990.77
2017-12-10T01:50:08.511Z,990.83
2017-12-10T01:51:08.509Z,990.84
2017-12-10T01:52:08.488Z,990.82
2017-12-10T01:53:08.479Z,990.73
2017-12-10T01:54:08.471Z,990.70
2017-12-10T01:55:08.460Z,990.71
2017-12-10T01:56:08.452Z,990.65
2017-12-10T01:57:08.441Z,990.59
2017-12-10T01:58:08.431Z,990.60
2017-12-10T01:59:08.425Z,990.53
2017-12-10T02:00:08.413Z,990.56
2017-12-10T02:01:08.402Z,990.58
2017-12-10T02:02:08.400Z,990.57
2017-12-10T02:03:08.391Z,990.48
2017-12-10T02:04:08.377Z,990.44
2017-12-10T02:05:08.366Z,990.44
2017-12-10T02:06:08.356Z,990.45
2017-12-10T02:07:08.352Z,990.35
2017-12-10T02:08:08.338Z,990.38
2017-12-10T02:09:08.330Z,990.31
2017-12-10T02:10:08.319Z,990.25
2017-12-10T02:11:08.311Z,990.21
2017-12-10T02:12:08.300Z,990.17
2017-12-10T02:13:08.291Z,990.09
2017-12-10T02:14:08.281Z,990.11
2017-12-10T02:15:08.273Z,990.09
2017-12-10T02:16:08.262Z,990.05
2017-12-10T02:17:08.256Z,990.00
2017-12-10T02:18:08.244Z,989.95
2017-12-10T02:19:08.235Z,989.95
2017-12-10T02:20:08.229Z,989.90
2017-12-10T02:21:08.215Z,989.86
2017-12-10T02:22:08.211Z,989.85
2017-12-10T02:23:08.198Z,989.79
2017-12-10T02:24:08.191Z,989.79
2017-12-10T02:25:11.103Z,989.76
2017-12-10T02:26:09.618Z,989.78
2017-12-10T02:27:08.160Z,989.70
2017-12-10T02:28:08.148Z,989.65
2017-12-10T02:29:08.141Z,989.65
2017-12-10T02:30:08.129Z,989.63
2017-12-10T02:31:08.119Z,989.58
2017-12-10T02:32:08.121Z,989.56
2017-12-10T02:33:08.099Z,989.55
2017-12-10T02:34:08.090Z,989.51
2017-12-10T02:35:08.099Z,989.48
2017-12-10T02:36:08.077Z,989.49
2017-12-10T02:37:08.061Z,989.50
2017-12-10T02:38:08.061Z,989.56
2017-12-10T02:39:08.043Z,989.48
2017-12-10T02:40:08.032Z,989.49
2017-12-10T02:41:08.022Z,989.46
2017-12-10T02:42:08.015Z,989.43
2017-12-10T02:43:08.003Z,989.46
2017-12-10T02:44:07.996Z,989.48
2017-12-10T02:45:07.984Z,989.51
2017-12-10T02:46:07.978Z,989.47
2017-12-10T02:47:07.965Z,989.40
2017-12-10T02:48:07.956Z,989.45
2017-12-10T02:49:07.946Z,989.41
2017-12-10T02:50:07.944Z,989.37
2017-12-10T02:51:07.940Z,989.36
2017-12-10T02:52:08.081Z,989.34
2017-12-10T02:53:07.922Z,989.34
2017-12-10T02:54:08.069Z,989.30
2017-12-10T02:55:07.887Z,989.31
2017-12-10T02:56:07.880Z,989.36
2017-12-10T02:57:07.865Z,989.36
2017-12-10T02:58:07.856Z,989.34
2017-12-10T02:59:07.846Z,989.36
2017-12-10T03:00:07.837Z,989.31
2017-12-10T03:01:07.833Z,989.26
2017-12-10T03:02:07.816Z,989.27
2017-12-10T03:03:07.815Z,989.32
2017-12-10T03:04:07.800Z,989.28
2017-12-10T03:05:07.796Z,989.30
2017-12-10T03:06:07.778Z,989.28
2017-12-10T03:07:07.770Z,989.23
2017-12-10T03:08:07.764Z,989.26
2017-12-10T03:09:07.747Z,989.24
2017-12-10T03:10:07.738Z,989.24
2017-12-10T03:11:07.738Z,989.26
2017-12-10T03:12:07.719Z,989.22
2017-12-10T03:13:07.714Z,989.21
2017-12-10T03:14:07.699Z,989.21
2017-12-10T03:15:07.692Z,989.25
2017-12-10T03:16:07.689Z,989.24
2017-12-10T03:17:07.670Z,989.18
2017-12-10T03:18:07.662Z,989.24
2017-12-10T03:19:07.651Z,989.23
2017-12-10T03:20:07.642Z,989.24
2017-12-10T03:21:07.629Z,989.24
2017-12-10T03:22:07.752Z,989.22
2017-12-10T03:23:07.635Z,989.22
2017-12-10T03:24:07.601Z,989.18
2017-12-10T03:25:07.591Z,989.16
2017-12-10T03:26:07.581Z,989.18
2017-12-10T03:27:07.570Z,989.12
2017-12-10T03:28:07.562Z,989.08
2017-12-10T03:29:07.551Z,989.08
2017-12-10T03:30:07.542Z,989.09
2017-12-10T03:31:07.534Z,989.05
2017-12-10T03:32:07.522Z,989.04
2017-12-10T03:33:07.511Z,989.07
2017-12-10T03:34:07.502Z,989.06
2017-12-10T03:35:07.492Z,988.96
2017-12-10T03:36:07.482Z,989.03
2017-12-10T03:37:07.472Z,989.00
2017-12-10T03:38:07.462Z,989.01
2017-12-10T03:39:07.452Z,988.98
2017-12-10T03:40:07.449Z,988.97
2017-12-10T03:41:07.432Z,989.00
2017-12-10T03:42:07.424Z,988.96
2017-12-10T03:43:07.420Z,988.95
2017-12-10T03:44:07.407Z,988.91
2017-12-10T03:45:07.393Z,988.89
2017-12-10T03:46:07.387Z,988.86
2017-12-10T03:47:07.375Z,988.85
2017-12-10T03:48:07.368Z,988.79
2017-12-10T03:49:07.357Z,988.81
2017-12-10T03:50:07.353Z,988.72
2017-12-10T03:51:07.337Z,988.69
2017-12-10T03:52:07.326Z,988.64
2017-12-10T03:53:07.315Z,988.64
2017-12-10T03:54:07.310Z,988.59
2017-12-10T03:55:07.297Z,988.59
2017-12-10T03:56:07.288Z,988.57
2017-12-10T03:57:07.277Z,988.53
2017-12-10T03:58:07.270Z,988.51
2017-12-10T03:59:07.261Z,988.52
2017-12-10T04:00:07.249Z,988.51
2017-12-10T04:01:07.238Z,988.50
2017-12-10T04:02:07.228Z,988.50
2017-12-10T04:03:07.219Z,988.45
2017-12-10T04:04:07.210Z,988.49
2017-12-10T04:05:07.201Z,988.43
2017-12-10T04:06:07.189Z,988.36
2017-12-10T04:07:07.179Z,988.35
2017-12-10T04:08:07.175Z,988.38
2017-12-10T04:09:07.159Z,988.37
2017-12-10T04:10:07.150Z,988.29
2017-12-10T04:11:07.141Z,988.30
2017-12-10T04:12:07.131Z,988.28
2017-12-10T04:13:07.129Z,988.33
2017-12-10T04:14:07.111Z,988.27
2017-12-10T04:15:07.102Z,988.26
2017-12-10T04:16:07.092Z,988.29
2017-12-10T04:17:07.083Z,988.24
2017-12-10T04:18:43.000Z,988.25
2017-12-10T04:19:07.063Z,988.28
2017-12-10T04:20:07.052Z,988.27
2017-12-10T04:21:07.043Z,988.25
2017-12-10T04:22:07.040Z,988.20
2017-12-10T04:23:07.022Z,988.32
2017-12-10T04:24:07.013Z,988.28
2017-12-10T04:25:07.003Z,988.22
2017-12-10T04:26:06.992Z,988.15
2017-12-10T04:27:06.983Z,988.19
2017-12-10T04:28:06.972Z,988.21
2017-12-10T04:29:06.962Z,988.17
2017-12-10T04:30:06.953Z,988.19
2017-12-10T04:31:06.944Z,988.20
2017-12-10T04:32:06.933Z,988.21
2017-12-10T04:33:06.924Z,988.18
2017-12-10T04:34:06.917Z,988.16
2017-12-10T04:35:06.906Z,988.16
2017-12-10T04:36:06.894Z,988.15
2017-12-10T04:37:06.899Z,988.12
2017-12-10T04:38:06.875Z,988.11
2017-12-10T04:39:06.867Z,988.05
2017-12-10T04:40:06.854Z,988.09
2017-12-10T04:41:06.844Z,988.04
2017-12-10T04:42:06.836Z,988.08
2017-12-10T04:43:06.824Z,988.09
2017-12-10T04:44:06.816Z,988.06
2017-12-10T04:45:06.804Z,988.01
2017-12-10T04:46:06.794Z,987.97
2017-12-10T04:47:06.783Z,987.89
2017-12-10T04:48:06.776Z,987.98
2017-12-10T04:49:06.763Z,987.93
2017-12-10T04:50:06.757Z,987.90
2017-12-10T04:51:06.745Z,987.97
2017-12-10T04:52:06.740Z,987.92
2017-12-10T04:53:06.724Z,987.89
2017-12-10T04:54:06.715Z,987.88
2017-12-10T04:55:06.705Z,987.85
2017-12-10T04:56:06.698Z,987.77
2017-12-10T04:57:06.730Z,987.79
2017-12-10T04:58:06.676Z,987.74
2017-12-10T04:59:06.664Z,987.72
2017-12-10T05:00:06.693Z,987.69
2017-12-10T05:01:06.645Z,987.68
2017-12-10T05:02:06.637Z,987.68
2017-12-10T05:03:06.625Z,987.70
2017-12-10T05:04:06.615Z,987.70
2017-12-10T05:05:06.604Z,987.68
2017-12-10T05:06:06.595Z,987.69
2017-12-10T05:07:06.584Z,987.69
2017-12-10T05:08:06.592Z,987.67
2017-12-10T05:09:06.564Z,987.63
2017-12-10T05:10:06.554Z,987.58
2017-12-10T05:11:06.544Z,987.52
2017-12-10T05:12:06.544Z,987.40
2017-12-10T05:13:06.524Z,987.44
2017-12-10T05:14:06.515Z,987.43
2017-12-10T05:15:06.505Z,987.42
2017-12-10T05:16:06.502Z,987.39
2017-12-10T05:17:06.484Z,987.39
2017-12-10T05:18:06.477Z,987.39
2017-12-10T05:19:06.468Z,987.34
2017-12-10T05:20:06.455Z,987.27
2017-12-10T05:21:06.445Z,987.28
2017-12-10T05:22:06.437Z,987.31
2017-12-10T05:23:06.428Z,987.27
2017-12-10T05:24:06.416Z,987.30
2017-12-10T05:25:06.405Z,987.28
2017-12-10T05:26:06.397Z,987.32
2017-12-10T05:27:06.393Z,987.31
2017-12-10T05:28:06.379Z,987.34
2017-12-10T05:29:06.366Z,987.29
2017-12-10T05:30:06.358Z,987.32
2017-12-10T05:31:06.351Z,987.18
2017-12-10T05:32:06.342Z,987.21
2017-12-10T05:33:06.327Z,987.17
2017-12-10T05:34:06.317Z,987.14
2017-12-10T05:35:06.309Z,987.14
2017-12-10T05:36:06.297Z,987.13
2017-12-10T05:37:06.287Z,987.11
2017-12-10T05:38:06.278Z,987.05
2017-12-10T05:39:06.269Z,987.06
2017-12-10T05:40:06.258Z,987.00
2017-12-10T05:41:06.248Z,986.91
2017-12-10T05:42:06.239Z,986.86
2017-12-10T05:43:06.229Z,986.89
2017-12-10T05:44:06.220Z,986.85
2017-12-10T05:45:06.209Z,986.79
2017-12-10T05:46:06.200Z,986.80
2017-12-10T05:47:06.191Z,986.76
2017-12-10T05:48:06.181Z,986.67
2017-12-10T05:49:06.170Z,986.55
2017-12-10T05:50:06.162Z,986.48
2017-12-10T05:51:06.152Z,986.56
2017-12-10T05:52:06.142Z,986.52
2017-12-10T05:53:06.135Z,986.56
2017-12-10T05:54:06.122Z,986.53
2017-12-10T05:55:06.113Z,986.55
2017-12-10T05:56:06.104Z,986.55
2017-12-10T05:57:06.095Z,986.48
2017-12-10T05:58:06.084Z,986.43
2017-12-10T05:59:06.075Z,986.43
2017-12-10T06:00:06.067Z,986.38
2017-12-10T06:01:06.057Z,986.40
2017-12-10T06:02:06.046Z,986.35
2017-12-10T06:03:06.035Z,986.26
2017-12-10T06:04:06.029Z,986.18
2017-12-10T06:05:06.017Z,986.17
2017-12-10T06:06:06.007Z,986.12
2017-12-10T06:07:05.998Z,986.09
2017-12-10T06:08:05.990Z,986.09
2017-12-10T06:09:05.979Z,986.07
2017-12-10T06:10:05.968Z,986.09
2017-12-10T06:11:05.965Z,986.06
2017-12-10T06:12:05.952Z,986.05
2017-12-10T06:13:05.954Z,986.01
2017-12-10T06:14:05.930Z,986.05
2017-12-10T06:15:05.920Z,986.02
2017-12-10T06:16:05.912Z,985.95
2017-12-10T06:17:05.902Z,985.98
2017-12-10T06:18:05.893Z,985.98
2017-12-10T06:19:05.884Z,985.93
2017-12-10T06:20:05.879Z,985.92
2017-12-10T06:21:05.909Z,985.88
2017-12-10T06:22:05.857Z,985.82
2017-12-10T06:23:05.853Z,985.80
2017-12-10T06:24:05.840Z,985.78
2017-12-10T06:25:05.826Z,985.73
2017-12-10T06:26:05.817Z,985.67
2017-12-10T06:27:05.806Z,985.58
2017-12-10T06:28:05.802Z,985.60
2017-12-10T06:29:05.787Z,985.52
2017-12-10T06:30:05.778Z,985.47
2017-12-10T06:31:05.772Z,985.43
2017-12-10T06:32:05.761Z,985.42
2017-12-10T06:33:05.756Z,985.43
2017-12-10T06:34:05.750Z,985.38
2017-12-10T06:35:05.729Z,985.35
2017-12-10T06:36:05.720Z,985.34
2017-12-10T06:37:05.712Z,985.29
2017-12-10T06:38:05.700Z,985.28
2017-12-10T06:39:05.695Z,985.30
2017-12-10T06:40:05.683Z,985.30
2017-12-10T06:41:05.676Z,985.21
2017-12-10T06:42:05.662Z,985.19
2017-12-10T06:43:05.653Z,985.27
2017-12-10T06:44:05.645Z,985.28
2017-12-10T06:45:05.633Z,985.20
2017-12-10T06:46:05.623Z,985.17
2017-12-10T06:47:05.617Z,985.10
2017-12-10T06:48:05.608Z,985.03
2017-12-10T06:49:05.596Z,985.10
2017-12-10T06:50:05.586Z,985.05
2017-12-10T06:51:05.578Z,985.04
2017-12-10T06:52:05.566Z,984.92
2017-12-10T06:53:05.556Z,984.94
2017-12-10T06:54:05.547Z,984.90
2017-12-10T06:55:05.538Z,984.89
2017-12-10T06:56:05.528Z,984.83
2017-12-10T06:57:05.518Z,984.85
2017-12-10T06:58:05.508Z,984.80
2017-12-10T06:59:05.498Z,984.75
2017-12-10T07:00:05.491Z,984.71
2017-12-10T07:01:05.480Z,984.65
2017-12-10T07:02:05.471Z,984.69
2017-12-10T07:03:05.459Z,984.63
2017-12-10T07:04:05.450Z,984.61
2017-12-10T07:05:05.443Z,984.57
2017-12-10T07:06:05.435Z,984.45
2017-12-10T07:07:05.425Z,984.50
2017-12-10T07:08:05.413Z,984.44
2017-12-10T07:09:05.406Z,984.44
2017-12-10T07:10:05.392Z,984.42
2017-12-10T07:11:05.385Z,984.40
2017-12-10T07:12:05.376Z,984.30
2017-12-10T07:13:05.363Z,984.33
2017-12-10T07:14:05.353Z,984.32
2017-12-10T07:15:05.345Z,984.28
2017-12-10T07:16:05.333Z,984.27
2017-12-10T07:17:05.324Z,984.19
2017-12-10T07:18:05.320Z,984.15
2017-12-10T07:19:05.305Z,984.08
2017-12-10T07:20:05.295Z,984.12
2017-12-10T07:21:05.287Z,984.12
2017-12-10T07:22:05.275Z,984.08
2017-12-10T07:23:05.265Z,984.02
2017-12-10T07:24:05.256Z,983.99
2017-12-10T07:25:05.245Z,984.02
2017-12-10T07:26:05.237Z,983.97
2017-12-10T07:27:05.259Z,983.90
2017-12-10T07:28:05.222Z,983.90
2017-12-10T07:29:05.207Z,983.92
2017-12-10T07:30:05.206Z,983.89
2017-12-10T07:31:05.187Z,983.85
2017-12-10T07:32:05.177Z,983.83
2017-12-10T07:33:05.189Z,983.76
2017-12-10T07:34:05.162Z,983.81
2017-12-10T07:35:05.147Z,983.73
2017-12-10T07:36:05.138Z,983.65
2017-12-10T07:37:05.127Z,983.66
2017-12-10T07:38:05.124Z,983.73
2017-12-10T07:39:05.109Z,983.70
2017-12-10T07:40:05.099Z,983.65
2017-12-10T07:41:05.088Z,983.53
2017-12-10T07:42:05.127Z,983.59
2017-12-10T07:43:05.069Z,983.59
2017-12-10T07:44:05.059Z,983.61
2017-12-10T07:45:05.047Z,983.54
2017-12-10T07:46:05.040Z,983.56
2017-12-10T07:47:05.030Z,983.53
2017-12-10T07:48:05.020Z,983.50
2017-12-10T07:49:05.009Z,983.41
2017-12-10T07:50:05.003Z,983.30
2017-12-10T07:51:04.990Z,983.25
2017-12-10T07:52:04.979Z,983.25
2017-12-10T07:53:04.968Z,983.19
2017-12-10T07:54:04.960Z,983.17
2017-12-10T07:55:04.949Z,983.11
2017-12-10T07:56:04.941Z,983.16
2017-12-10T07:57:04.940Z,983.08
2017-12-10T07:58:04.920Z,983.11
2017-12-10T07:59:04.940Z,983.11
2017-12-10T08:00:04.900Z,983.04
2017-12-10T08:01:04.888Z,983.05
2017-12-10T08:02:04.881Z,983.07
2017-12-10T08:03:04.870Z,983.05
2017-12-10T08:04:04.860Z,983.00
2017-12-10T08:05:04.851Z,982.99
2017-12-10T08:06:04.840Z,983.01
2017-12-10T08:07:04.834Z,983.00
2017-12-10T08:08:04.820Z,982.97
2017-12-10T08:09:04.812Z,982.95
2017-12-10T08:10:04.800Z,982.98
2017-12-10T08:11:04.798Z,982.97
2017-12-10T08:12:04.781Z,983.01
2017-12-10T08:13:04.774Z,983.03
2017-12-10T08:14:04.767Z,983.02
2017-12-10T08:15:04.755Z,983.01
2017-12-10T08:16:04.746Z,983.00
2017-12-10T08:17:04.734Z,983.01
2017-12-10T08:18:04.723Z,982.99
2017-12-10T08:19:04.712Z,982.98
2017-12-10T08:20:04.708Z,982.95
2017-12-10T08:21:04.692Z,982.97
2017-12-10T08:22:04.682Z,982.96
2017-12-10T08:23:04.675Z,982.99
2017-12-10T08:24:04.673Z,982.95
2017-12-10T08:25:04.650Z,982.87
2017-12-10T08:26:04.642Z,982.84
2017-12-10T08:27:04.633Z,982.79
2017-12-10T08:28:04.624Z,982.83
2017-12-10T08:29:04.613Z,982.76
2017-12-10T08:30:04.603Z,982.74
2017-12-10T08:31:04.595Z,982.73
2017-12-10T08:32:04.581Z,982.76
2017-12-10T08:33:04.571Z,982.70
2017-12-10T08:34:04.567Z,982.69
2017-12-10T08:35:04.552Z,982.64
2017-12-10T08:36:04.544Z,982.56
2017-12-10T08:37:04.534Z,982.49
2017-12-10T08:38:04.522Z,982.50
2017-12-10T08:39:04.516Z,982.51
2017-12-10T08:40:04.503Z,982.56
2017-12-10T08:41:04.492Z,982.53
2017-12-10T08:42:04.481Z,982.57
2017-12-10T08:43:04.474Z,982.54
2017-12-10T08:44:04.469Z,982.50
2017-12-10T08:45:04.457Z,982.51
2017-12-10T08:46:04.446Z,982.46
2017-12-10T08:47:04.437Z,982.45
2017-12-10T08:48:04.430Z,982.44
2017-12-10T08:49:04.414Z,982.29
2017-12-10T08:50:04.448Z,982.26
2017-12-10T08:51:04.396Z,982.19
2017-12-10T08:52:04.389Z,982.18
2017-12-10T08:53:04.437Z,982.14
2017-12-10T08:54:04.371Z,982.18
2017-12-10T08:55:04.356Z,982.12
2017-12-10T08:56:04.347Z,982.10
2017-12-10T08:57:04.339Z,982.01
2017-12-10T08:58:04.331Z,981.96
2017-12-10T08:59:04.318Z,981.98
2017-12-10T09:00:04.309Z,982.01
2017-12-10T09:01:04.299Z,981.94
2017-12-10T09:02:04.290Z,981.97
2017-12-10T09:03:04.279Z,981.97
2017-12-10T09:04:04.270Z,981.86
2017-12-10T09:05:04.260Z,981.80
2017-12-10T09:06:04.250Z,981.77
2017-12-10T09:07:04.251Z,981.81
2017-12-10T09:08:04.231Z,981.82
2017-12-10T09:09:04.223Z,981.80
2017-12-10T09:10:04.211Z,981.76
2017-12-10T09:11:04.204Z,981.81
2017-12-10T09:12:04.196Z,981.76
2017-12-10T09:13:04.181Z,981.65
2017-12-10T09:14:04.174Z,981.69
2017-12-10T09:15:04.165Z,981.59
2017-12-10T09:16:04.159Z,981.57
2017-12-10T09:17:04.144Z,981.58
2017-12-10T09:18:04.135Z,981.54
2017-12-10T09:19:04.124Z,981.45
2017-12-10T09:20:04.116Z,981.44
2017-12-10T09:21:04.105Z,981.35
2017-12-10T09:22:04.099Z,981.25
2017-12-10T09:23:04.091Z,981.23
2017-12-10T09:24:04.077Z,981.18
2017-12-10T09:25:04.069Z,981.22
2017-12-10T09:26:04.059Z,981.21
2017-12-10T09:27:04.049Z,981.18
2017-12-10T09:28:04.053Z,981.14
2017-12-10T09:29:04.030Z,981.05
2017-12-10T09:30:04.020Z,981.04
2017-12-10T09:31:04.011Z,980.92
2017-12-10T09:32:04.003Z,981.03
2017-12-10T09:33:03.995Z,980.93
2017-12-10T09:34:03.983Z,980.96
2017-12-10T09:35:03.974Z,980.88
2017-12-10T09:36:03.965Z,980.87
2017-12-10T09:37:03.958Z,980.90
2017-12-10T09:38:03.945Z,980.83
2017-12-10T09:39:03.935Z,980.81
2017-12-10T09:40:03.933Z,980.78
2017-12-10T09:41:03.917Z,980.75
2017-12-10T09:42:03.907Z,980.78
2017-12-10T09:43:03.900Z,980.83
2017-12-10T09:44:03.892Z,980.81
2017-12-10T09:45:03.878Z,980.72
2017-12-10T09:46:03.869Z,980.75
2017-12-10T09:47:03.861Z,980.58
2017-12-10T09:48:03.852Z,980.64
2017-12-10T09:49:03.843Z,980.69
2017-12-10T09:50:03.864Z,980.68
2017-12-10T09:51:03.825Z,980.74
2017-12-10T09:52:03.835Z,980.67
2017-12-10T09:53:03.806Z,980.59
2017-12-10T09:54:03.800Z,980.59
2017-12-10T09:55:03.786Z,980.51
2017-12-10T09:56:03.777Z,980.44
2017-12-10T09:57:03.767Z,980.45
2017-12-10T09:58:03.761Z,980.41
2017-12-10T09:59:03.749Z,980.39
2017-12-10T10:00:03.740Z,980.36
2017-12-10T10:01:03.734Z,980.23
2017-12-10T10:02:03.722Z,980.17
2017-12-10T10:03:03.711Z,980.14
2017-12-10T10:04:03.702Z,980.15
2017-12-10T10:05:03.692Z,980.14
2017-12-10T10:06:03.706Z,980.14
2017-12-10T10:07:03.674Z,980.13
2017-12-10T10:08:03.667Z,980.05
2017-12-10T10:09:03.654Z,980.00
2017-12-10T10:10:03.647Z,979.92
2017-12-10T10:11:03.637Z,979.88
2017-12-10T10:12:03.628Z,979.77
2017-12-10T10:13:03.618Z,979.84
2017-12-10T10:14:03.609Z,979.74
2017-12-10T10:15:03.605Z,979.74
2017-12-10T10:16:03.606Z,979.63
2017-12-10T10:17:03.643Z,979.51
2017-12-10T10:18:03.573Z,979.51
2017-12-10T10:19:03.562Z,979.47
2017-12-10T10:20:03.557Z,979.45
2017-12-10T10:21:03.544Z,979.44
2017-12-10T10:22:03.546Z,979.41
2017-12-10T10:23:03.525Z,979.40
2017-12-10T10:24:03.515Z,979.32
2017-12-10T10:25:03.506Z,979.26
2017-12-10T10:26:03.527Z,979.15
2017-12-10T10:27:03.569Z,979.04
2017-12-10T10:28:03.478Z,978.98
2017-12-10T10:29:03.468Z,978.96
2017-12-10T10:30:03.465Z,978.83
2017-12-10T10:31:03.449Z,978.68
2017-12-10T10:32:03.442Z,978.58
2017-12-10T10:33:03.431Z,978.62
2017-12-10T10:34:03.423Z,978.59
2017-12-10T10:35:03.418Z,978.50
2017-12-10T10:36:03.406Z,978.44
2017-12-10T10:37:03.400Z,978.38
2017-12-10T10:38:03.390Z,978.28
2017-12-10T10:39:03.378Z,978.36
2017-12-10T10:40:03.369Z,978.37
2017-12-10T10:41:03.357Z,978.39
2017-12-10T10:42:03.351Z,978.38
2017-12-10T10:43:03.340Z,978.35
2017-12-10T10:44:03.330Z,978.36
2017-12-10T10:45:03.319Z,978.33
2017-12-10T10:46:03.311Z,978.30
2017-12-10T10:47:03.303Z,978.32
2017-12-10T10:48:03.304Z,978.27
2017-12-10T10:49:03.282Z,978.16
2017-12-10T10:50:03.274Z,978.15
2017-12-10T10:51:03.264Z,978.10
2017-12-10T10:52:03.256Z,978.06
2017-12-10T10:53:03.245Z,978.01
2017-12-10T10:54:03.237Z,978.02
2017-12-10T10:55:03.237Z,978.02
2017-12-10T10:56:03.220Z,977.90
2017-12-10T10:57:03.209Z,977.83
2017-12-10T10:58:03.199Z,977.82
2017-12-10T10:59:03.225Z,977.82
2017-12-10T11:00:03.184Z,977.77
2017-12-10T11:01:03.172Z,977.69
2017-12-10T11:02:03.162Z,977.57
2017-12-10T11:03:03.154Z,977.52
2017-12-10T11:04:03.148Z,977.50
2017-12-10T11:05:03.135Z,977.54
2017-12-10T11:06:03.126Z,977.48
2017-12-10T11:07:03.115Z,977.40
2017-12-10T11:08:03.107Z,977.40
2017-12-10T11:09:03.098Z,977.34
2017-12-10T11:10:03.093Z,977.31
2017-12-10T11:11:03.080Z,977.29
2017-12-10T11:12:03.072Z,977.25
2017-12-10T11:13:03.063Z,977.23
2017-12-10T11:14:03.055Z,977.22
2017-12-10T11:15:03.043Z,977.19
2017-12-10T11:16:03.049Z,977.14
2017-12-10T11:17:03.035Z,977.05
2017-12-10T11:18:03.024Z,976.98
2017-12-10T11:19:03.007Z,976.89
2017-12-10T11:20:03.000Z,976.81
2017-12-10T11:21:02.996Z,976.75
2017-12-10T11:22:02.979Z,976.71
2017-12-10T11:23:02.972Z,976.69
2017-12-10T11:24:02.963Z,976.57
2017-12-10T11:25:02.968Z,976.61
2017-12-10T11:26:02.950Z,976.58
2017-12-10T11:27:02.935Z,976.53
2017-12-10T11:28:02.927Z,976.43
2017-12-10T11:29:02.918Z,976.42
2017-12-10T11:30:02.908Z,976.38
2017-12-10T11:31:02.905Z,976.32
2017-12-10T11:32:02.889Z,976.24
2017-12-10T11:33:02.880Z,976.21
2017-12-10T11:34:02.871Z,976.18
2017-12-10T11:35:02.865Z,976.17
2017-12-10T11:36:02.857Z,976.02
2017-12-10T11:37:02.857Z,975.90
2017-12-10T11:38:02.836Z,975.85
2017-12-10T11:39:02.826Z,975.74
2017-12-10T11:40:02.821Z,975.76
2017-12-10T11:41:02.808Z,975.76
2017-12-10T11:42:02.801Z,975.72
2017-12-10T11:43:02.791Z,975.71
2017-12-10T11:44:02.789Z,975.70
2017-12-10T11:45:02.773Z,975.72
2017-12-10T11:46:02.763Z,975.66
2017-12-10T11:47:02.754Z,975.63
2017-12-10T11:48:02.745Z,975.58
2017-12-10T11:49:02.739Z,975.56
2017-12-10T11:50:02.728Z,975.52
2017-12-10T11:51:02.725Z,975.45
2017-12-10T11:52:02.719Z,975.21
2017-12-10T11:53:02.698Z,975.25
2017-12-10T11:54:02.692Z,975.19
2017-12-10T11:55:02.681Z,975.16
2017-12-10T11:56:02.681Z,975.21
2017-12-10T11:57:02.661Z,975.17
2017-12-10T11:58:02.652Z,975.08
2017-12-10T11:59:02.647Z,975.02
2017-12-10T12:00:02.634Z,974.99
2017-12-10T12:01:02.627Z,974.98
2017-12-10T12:02:02.615Z,974.86
2017-12-10T12:03:02.609Z,974.80
2017-12-10T12:04:02.597Z,974.76
2017-12-10T12:05:02.586Z,974.73
2017-12-10T12:06:02.583Z,974.69
2017-12-10T12:07:02.568Z,974.70
2017-12-10T12:08:02.560Z,974.73
2017-12-10T12:09:02.549Z,974.66
2017-12-10T12:10:02.540Z,974.59
2017-12-10T12:11:02.532Z,974.60
2017-12-10T12:12:02.521Z,974.61
2017-12-10T12:13:02.511Z,974.56
2017-12-10T12:14:02.503Z,974.48
2017-12-10T12:15:02.506Z,974.38
2017-12-10T12:16:02.484Z,974.35
2017-12-10T12:17:02.474Z,974.28
2017-12-10T12:18:02.469Z,974.26
2017-12-10T12:19:02.456Z,974.21
2017-12-10T12:20:02.449Z,974.21
2017-12-10T12:21:02.436Z,974.22
2017-12-10T12:22:02.428Z,974.20
2017-12-10T12:23:02.419Z,974.12
2017-12-10T12:24:02.414Z,974.00
2017-12-10T12:25:02.402Z,973.95
2017-12-10T12:26:02.392Z,973.96
2017-12-10T12:27:02.384Z,973.93
2017-12-10T12:28:02.372Z,973.88